createdAt,value
2018-10-09T00:01:00.364Z,7.37
2018-10-09T00:03:27.693Z,7.50
2018-10-09T00:05:54.972Z,7.70
2018-10-09T00:08:22.306Z,7.90
2018-10-09T00:10:49.607Z,7.17
2018-10-09T00:13:16.979Z,7.03
2018-10-09T00:15:44.246Z,6.77
2018-10-09T00:18:11.646Z,6.70
2018-10-09T00:20:38.992Z,6.50
2018-10-09T00:23:06.934Z,8.27
2018-10-09T00:25:34.234Z,6.13
2018-10-09T00:28:01.479Z,6.60
2018-10-09T00:30:28.861Z,6.23
2018-10-09T00:32:56.110Z,6.93
2018-10-09T00:35:23.410Z,9.43
2018-10-09T00:37:51.121Z,6.10
2018-10-09T00:40:18.411Z,7.00
2018-10-09T00:42:45.779Z,6.10
2018-10-09T00:45:13.031Z,6.00
2018-10-09T00:47:40.386Z,6.93
2018-10-09T00:50:08.037Z,7.57
2018-10-09T00:52:35.446Z,6.03
2018-10-09T00:55:03.923Z,6.13
2018-10-09T00:57:31.283Z,6.00
2018-10-09T00:59:58.600Z,6.33
2018-10-09T01:02:25.912Z,6.60
2018-10-09T01:04:53.234Z,6.23
2018-10-09T01:07:20.717Z,7.50
2018-10-09T01:09:48.066Z,6.13
2018-10-09T01:12:15.369Z,6.07
2018-10-09T01:14:42.691Z,6.77
2018-10-09T01:17:10.001Z,6.10
2018-10-09T01:19:37.310Z,6.83
2018-10-09T01:22:04.563Z,6.83
2018-10-09T01:24:31.920Z,6.47
2018-10-09T01:26:59.202Z,6.30
2018-10-09T01:29:26.514Z,7.53
2018-10-09T01:31:53.758Z,5.70
2018-10-09T01:34:21.128Z,5.30
2018-10-09T01:36:48.396Z,6.80
2018-10-09T01:39:15.654Z,6.73
2018-10-09T01:41:42.971Z,6.03
2018-10-09T01:44:10.233Z,6.50
2018-10-09T01:46:37.462Z,6.00
2018-10-09T01:49:04.857Z,5.77
2018-10-09T01:51:32.216Z,5.43
2018-10-09T01:53:59.576Z,5.87
2018-10-09T01:56:26.888Z,5.60
2018-10-09T01:58:54.226Z,5.67
2018-10-09T02:01:21.485Z,5.83
2018-10-09T02:03:48.779Z,5.57
2018-10-09T02:06:16.633Z,5.70
2018-10-09T02:08:43.942Z,5.63
2018-10-09T02:11:11.283Z,6.07
2018-10-09T02:13:38.605Z,5.80
2018-10-09T02:16:06.711Z,5.30
2018-10-09T02:18:33.948Z,5.10
2018-10-09T02:21:01.893Z,5.27
2018-10-09T02:23:29.274Z,6.33
2018-10-09T02:25:56.554Z,4.90
2018-10-09T02:28:23.845Z,4.90
2018-10-09T02:30:51.196Z,5.10
2018-10-09T02:33:18.471Z,5.00
2018-10-09T02:35:45.724Z,5.20
2018-10-09T02:38:12.982Z,5.00
2018-10-09T02:40:40.239Z,4.93
2018-10-09T02:43:07.675Z,5.10
2018-10-09T02:45:35.626Z,5.20
2018-10-09T02:48:02.878Z,5.20
2018-10-09T02:50:30.186Z,4.50
2018-10-09T02:52:57.457Z,4.87
2018-10-09T02:55:24.975Z,6.20
2018-10-09T02:57:52.842Z,6.33
2018-10-09T03:00:20.219Z,5.00
2018-10-09T03:02:47.638Z,5.03
2018-10-09T03:05:15.152Z,5.07
2018-10-09T03:07:42.392Z,5.30
2018-10-09T03:10:09.882Z,5.03
2018-10-09T03:12:37.137Z,4.63
2018-10-09T03:15:05.111Z,5.00
2018-10-09T03:17:33.122Z,5.17
2018-10-09T03:20:00.592Z,4.50
2018-10-09T03:22:27.880Z,4.87
2018-10-09T03:24:55.161Z,5.33
2018-10-09T03:27:22.484Z,4.63
2018-10-09T03:29:49.707Z,5.03
2018-10-09T03:32:17.010Z,4.83
2018-10-09T03:34:44.263Z,5.00
2018-10-09T03:37:11.542Z,5.20
2018-10-09T03:39:38.951Z,5.23
2018-10-09T03:42:06.236Z,5.13
2018-10-09T03:44:33.515Z,5.33
2018-10-09T03:47:00.772Z,5.67
2018-10-09T03:49:28.077Z,7.97
2018-10-09T03:51:55.327Z,6.33
2018-10-09T03:54:22.630Z,5.53
2018-10-09T03:56:49.945Z,5.27
2018-10-09T03:59:17.237Z,5.07
2018-10-09T04:01:44.548Z,5.43
2018-10-09T04:04:11.839Z,5.50
2018-10-09T04:06:39.097Z,4.90
2018-10-09T04:09:08.760Z,5.53
2018-10-09T04:11:36.045Z,6.10
2018-10-09T04:14:03.339Z,5.87
2018-10-09T04:16:30.625Z,5.67
2018-10-09T04:18:57.955Z,6.30
2018-10-09T04:21:25.223Z,5.00
2018-10-09T04:23:52.485Z,5.43
2018-10-09T04:26:19.857Z,5.50
2018-10-09T04:28:47.147Z,6.43
2018-10-09T04:31:14.438Z,6.10
2018-10-09T04:33:41.740Z,6.53
2018-10-09T04:36:09.084Z,5.60
2018-10-09T04:38:36.595Z,5.33
2018-10-09T04:41:03.857Z,5.30
2018-10-09T04:43:31.153Z,4.93
2018-10-09T04:45:58.433Z,5.10
2018-10-09T04:48:25.790Z,5.97
2018-10-09T04:50:53.039Z,5.93
2018-10-09T04:53:20.399Z,5.63
2018-10-09T04:55:47.644Z,6.83
2018-10-09T04:58:15.041Z,5.50
2018-10-09T05:00:42.352Z,5.73
2018-10-09T05:03:09.577Z,5.37
2018-10-09T05:05:36.919Z,6.40
2018-10-09T05:08:04.170Z,8.43
2018-10-09T05:10:31.496Z,5.37
2018-10-09T05:12:58.819Z,5.67
2018-10-09T05:15:26.073Z,6.10
2018-10-09T05:17:53.560Z,5.37
2018-10-09T05:20:20.738Z,5.50
2018-10-09T05:22:48.049Z,5.60
2018-10-09T05:25:15.351Z,4.93
2018-10-09T05:27:42.667Z,5.10
2018-10-09T05:30:09.957Z,4.43
2018-10-09T05:32:37.203Z,4.73
2018-10-09T05:35:04.576Z,5.83
2018-10-09T05:37:31.918Z,5.20
2018-10-09T05:39:59.203Z,5.90
2018-10-09T05:42:26.517Z,5.57
2018-10-09T05:44:53.820Z,5.67
2018-10-09T05:47:21.183Z,5.57
2018-10-09T05:49:48.680Z,5.30
2018-10-09T05:52:16.041Z,5.83
2018-10-09T05:54:43.324Z,5.83
2018-10-09T05:57:10.617Z,5.80
2018-10-09T05:59:38.121Z,6.67
2018-10-09T06:02:05.880Z,5.73
2018-10-09T06:04:33.251Z,6.23
2018-10-09T06:07:00.573Z,5.60
2018-10-09T06:09:27.924Z,7.43
2018-10-09T06:11:55.272Z,6.70
2018-10-09T06:14:22.591Z,7.10
2018-10-09T06:16:49.890Z,7.00
2018-10-09T06:19:17.176Z,6.53
2018-10-09T06:21:44.454Z,9.03
2018-10-09T06:24:11.786Z,6.60
2018-10-09T06:26:39.139Z,6.83
2018-10-09T06:29:06.515Z,6.90
2018-10-09T06:31:33.803Z,7.80
2018-10-09T06:34:01.112Z,7.43
2018-10-09T06:36:28.450Z,6.97
2018-10-09T06:38:55.773Z,7.07
2018-10-09T06:41:23.131Z,7.37
2018-10-09T06:43:50.441Z,7.00
2018-10-09T06:46:18.885Z,8.10
2018-10-09T06:48:47.361Z,7.10
2018-10-09T06:51:14.679Z,8.47
2018-10-09T06:53:42.193Z,9.53
2018-10-09T06:56:09.981Z,7.97
2018-10-09T06:58:37.267Z,7.57
2018-10-09T07:01:04.583Z,7.53
2018-10-09T07:03:31.957Z,8.63
2018-10-09T07:05:59.263Z,7.73
2018-10-09T07:08:26.580Z,7.70
2018-10-09T07:10:53.884Z,8.00
2018-10-09T07:13:21.342Z,8.97
2018-10-09T07:15:48.714Z,7.67
2018-10-09T07:18:16.129Z,8.60
2018-10-09T07:20:43.398Z,9.47
2018-10-09T07:23:10.702Z,9.40
2018-10-09T07:25:38.049Z,9.77
2018-10-09T07:28:05.428Z,10.17
2018-10-09T07:30:32.858Z,8.77
2018-10-09T07:33:00.183Z,8.77
2018-10-09T07:35:27.560Z,11.00
2018-10-09T07:37:54.868Z,10.37
2018-10-09T07:40:22.159Z,8.93
2018-10-09T07:42:49.475Z,10.73
2018-10-09T07:45:16.781Z,9.53
2018-10-09T07:47:44.094Z,12.40
2018-10-09T07:50:11.507Z,10.33
2018-10-09T07:52:38.882Z,10.67
2018-10-09T07:55:06.307Z,10.27
2018-10-09T07:57:33.693Z,9.43
2018-10-09T08:00:01.092Z,9.83
2018-10-09T08:02:28.431Z,12.17
2018-10-09T08:04:56.068Z,10.37
2018-10-09T08:07:23.341Z,10.33
2018-10-09T08:09:50.624Z,11.00
2018-10-09T08:12:18.065Z,10.17
2018-10-09T08:14:45.417Z,10.20
2018-10-09T08:17:12.738Z,10.70
2018-10-09T08:19:40.117Z,10.60
2018-10-09T08:22:07.552Z,11.00
2018-10-09T08:24:34.833Z,10.87
2018-10-09T08:27:02.196Z,10.17
2018-10-09T08:29:29.548Z,10.00
2018-10-09T08:31:56.878Z,9.90
2018-10-09T08:34:24.222Z,9.93
2018-10-09T08:36:51.483Z,9.97
2018-10-09T08:39:18.784Z,10.67
2018-10-09T08:41:46.118Z,10.13
2018-10-09T08:44:13.451Z,9.50
2018-10-09T08:46:40.742Z,11.50
2018-10-09T08:49:07.996Z,9.07
2018-10-09T08:51:35.308Z,9.50
2018-10-09T08:54:02.693Z,9.57
2018-10-09T08:56:30.072Z,9.70
2018-10-09T08:58:57.509Z,9.90
2018-10-09T09:01:24.819Z,9.17
2018-10-09T09:03:52.124Z,8.77
2018-10-09T09:06:19.465Z,10.20
2018-10-09T09:08:46.763Z,10.07
2018-10-09T09:11:14.113Z,10.00
2018-10-09T09:13:41.493Z,9.93
2018-10-09T09:16:08.879Z,8.87
2018-10-09T09:18:36.239Z,9.80
2018-10-09T09:21:03.511Z,11.07
2018-10-09T09:23:31.626Z,9.30
2018-10-09T09:25:58.880Z,11.40
2018-10-09T09:28:26.354Z,9.60
2018-10-09T09:30:53.665Z,12.67
2018-10-09T09:33:21.017Z,10.63
2018-10-09T09:35:48.314Z,9.07
2018-10-09T09:38:15.734Z,9.77
2018-10-09T09:40:43.117Z,10.73
2018-10-09T09:43:10.496Z,11.07
2018-10-09T09:45:37.831Z,9.40
2018-10-09T09:48:05.547Z,10.17
2018-10-09T09:50:32.922Z,9.23
2018-10-09T09:53:00.216Z,11.07
2018-10-09T09:55:27.506Z,9.63
2018-10-09T09:57:54.897Z,11.13
2018-10-09T10:00:27.685Z,9.97
2018-10-09T10:02:55.097Z,11.27
2018-10-09T10:05:22.388Z,11.43
2018-10-09T10:07:49.738Z,10.63
2018-10-09T10:10:17.058Z,10.87
2018-10-09T10:12:44.341Z,10.60
2018-10-09T10:15:11.699Z,10.57
2018-10-09T10:17:39.017Z,12.10
2018-10-09T10:20:06.641Z,9.73
2018-10-09T10:22:33.929Z,8.97
2018-10-09T10:25:01.262Z,10.47
2018-10-09T10:27:28.598Z,10.60
2018-10-09T10:29:55.873Z,10.10
2018-10-09T10:32:23.177Z,11.03
2018-10-09T10:34:50.407Z,14.17
2018-10-09T10:37:17.716Z,11.37
2018-10-09T10:39:45.036Z,13.70
2018-10-09T10:42:12.373Z,9.70
2018-10-09T10:44:39.549Z,8.07
2018-10-09T10:47:06.806Z,8.53
2018-10-09T10:49:34.182Z,10.00
2018-10-09T10:52:01.391Z,8.67
2018-10-09T10:54:28.721Z,9.17
2018-10-09T10:56:56.061Z,8.37
2018-10-09T10:59:23.323Z,8.57
2018-10-09T11:01:50.690Z,8.73
2018-10-09T11:04:17.931Z,9.63
2018-10-09T11:06:45.275Z,8.53
2018-10-09T11:09:12.551Z,8.47
2018-10-09T11:11:39.903Z,8.73
2018-10-09T11:14:07.274Z,7.47
2018-10-09T11:16:34.652Z,9.90
2018-10-09T11:19:01.977Z,7.80
2018-10-09T11:21:29.339Z,8.10
2018-10-09T11:23:56.577Z,8.47
2018-10-09T11:26:23.819Z,8.93
2018-10-09T11:28:51.107Z,7.90
2018-10-09T11:31:18.360Z,7.70
2018-10-09T11:33:45.737Z,8.20
2018-10-09T11:36:13.017Z,7.37
2018-10-09T11:38:40.302Z,10.47
2018-10-09T11:41:07.580Z,8.33
2018-10-09T11:43:34.920Z,8.43
2018-10-09T11:46:02.228Z,7.77
2018-10-09T11:48:29.542Z,8.60
2018-10-09T11:50:56.860Z,8.43
2018-10-09T11:53:24.153Z,8.73
2018-10-09T11:55:51.865Z,8.97
2018-10-09T11:58:19.198Z,8.97
2018-10-09T12:00:48.140Z,7.87
2018-10-09T12:03:15.497Z,9.40
2018-10-09T12:05:42.787Z,6.83
2018-10-09T12:08:10.168Z,8.27
2018-10-09T12:10:37.427Z,7.73
2018-10-09T12:13:04.702Z,8.27
2018-10-09T12:15:32.040Z,8.17
2018-10-09T12:17:59.244Z,9.93
2018-10-09T12:20:26.549Z,8.30
2018-10-09T12:22:53.925Z,8.60
2018-10-09T12:25:21.525Z,8.73
2018-10-09T12:27:48.791Z,9.60
2018-10-09T12:30:16.455Z,7.70
2018-10-09T12:32:43.890Z,8.83
2018-10-09T12:35:11.174Z,8.27
2018-10-09T12:37:38.498Z,8.10
2018-10-09T12:40:05.737Z,9.58
2018-10-09T12:42:33.115Z,8.30
2018-10-09T12:45:00.409Z,8.80
2018-10-09T12:47:27.715Z,8.20
2018-10-09T12:49:55.020Z,8.53
2018-10-09T12:52:22.445Z,8.77
2018-10-09T12:54:49.888Z,7.97
2018-10-09T12:57:17.608Z,8.60
2018-10-09T12:59:44.925Z,9.37
2018-10-09T13:02:12.263Z,8.13
2018-10-09T13:04:39.632Z,8.50
2018-10-09T13:07:06.958Z,8.80
2018-10-09T13:09:34.327Z,7.70
2018-10-09T13:12:01.593Z,8.13
2018-10-09T13:14:28.923Z,8.30
2018-10-09T13:16:56.216Z,8.50
2018-10-09T13:19:23.568Z,10.40
2018-10-09T13:21:51.116Z,7.43
2018-10-09T13:24:18.254Z,7.87
2018-10-09T13:26:45.597Z,8.53
2018-10-09T13:29:12.949Z,8.33
2018-10-09T13:31:40.291Z,8.63
2018-10-09T13:34:07.598Z,8.13
2018-10-09T13:36:35.788Z,9.80
2018-10-09T13:39:04.580Z,8.17
2018-10-09T13:41:31.987Z,8.80
2018-10-09T13:43:59.306Z,7.57
2018-10-09T13:46:26.604Z,7.60
2018-10-09T13:48:53.894Z,7.67
2018-10-09T13:51:21.256Z,7.53
2018-10-09T13:53:48.547Z,7.83
2018-10-09T13:56:15.912Z,7.23
2018-10-09T13:58:43.282Z,8.23
2018-10-09T14:01:10.587Z,7.60
2018-10-09T14:03:37.933Z,7.03
2018-10-09T14:06:05.281Z,7.10
2018-10-09T14:08:32.574Z,7.40
2018-10-09T14:10:59.842Z,7.42
2018-10-09T14:13:27.189Z,7.12
2018-10-09T14:15:54.515Z,7.27
2018-10-09T14:18:21.843Z,6.87
2018-10-09T14:20:49.150Z,6.97
2018-10-09T14:23:16.479Z,7.20
2018-10-09T14:25:43.721Z,7.53
2018-10-09T14:28:10.993Z,7.15
2018-10-09T14:30:38.393Z,6.20
2018-10-09T14:33:05.739Z,6.60
2018-10-09T14:35:33.024Z,6.17
2018-10-09T14:38:00.366Z,6.90
2018-10-09T14:40:27.637Z,6.33
2018-10-09T14:42:54.944Z,5.87
2018-10-09T14:45:22.389Z,6.12
2018-10-09T14:47:49.746Z,6.12
2018-10-09T14:50:17.074Z,6.80
2018-10-09T14:52:44.330Z,6.22
2018-10-09T14:55:11.769Z,6.03
2018-10-09T14:57:39.240Z,6.55
2018-10-09T15:00:07.946Z,5.72
2018-10-09T15:02:35.258Z,6.28
2018-10-09T15:05:02.541Z,5.70
2018-10-09T15:07:29.786Z,7.50
2018-10-09T15:09:57.063Z,7.10
2018-10-09T15:12:24.377Z,6.53
2018-10-09T15:14:51.646Z,6.78
2018-10-09T15:17:19.080Z,6.20
2018-10-09T15:19:46.381Z,6.87
2018-10-09T15:22:13.751Z,9.08
2018-10-09T15:24:41.155Z,7.03
2018-10-09T15:27:08.439Z,6.93
2018-10-09T15:29:35.765Z,6.83
2018-10-09T15:32:03.169Z,6.17
2018-10-09T15:34:30.475Z,6.13
2018-10-09T15:36:57.814Z,6.53
2018-10-09T15:39:25.159Z,7.03
2018-10-09T15:41:52.419Z,7.13
2018-10-09T15:44:19.785Z,6.37
2018-10-09T15:46:47.102Z,5.77
2018-10-09T15:49:14.389Z,6.30
2018-10-09T15:51:41.732Z,8.10
2018-10-09T15:54:09.021Z,7.93
2018-10-09T15:56:36.429Z,6.50
2018-10-09T15:59:03.654Z,7.33
2018-10-09T16:01:31.055Z,7.90
2018-10-09T16:03:58.370Z,7.33
2018-10-09T16:06:25.670Z,6.53
2018-10-09T16:08:53.010Z,9.27
2018-10-09T16:11:20.265Z,7.10
2018-10-09T16:13:47.551Z,7.40
2018-10-09T16:16:14.850Z,7.00
2018-10-09T16:18:42.254Z,6.77
2018-10-09T16:21:09.619Z,8.20
2018-10-09T16:23:36.859Z,7.40
2018-10-09T16:26:04.254Z,7.27
2018-10-09T16:28:31.534Z,7.10
2018-10-09T16:30:59.200Z,7.07
2018-10-09T16:33:26.513Z,9.37
2018-10-09T16:35:53.832Z,6.67
2018-10-09T16:38:21.311Z,8.93
2018-10-09T16:40:48.647Z,7.60
2018-10-09T16:43:16.088Z,7.63
2018-10-09T16:45:43.340Z,7.90
2018-10-09T16:48:10.772Z,8.43
2018-10-09T16:50:38.037Z,19.17
2018-10-09T16:53:05.605Z,12.60
2018-10-09T16:55:32.987Z,9.47
2018-10-09T16:58:00.352Z,8.47
2018-10-09T17:00:27.690Z,7.93
2018-10-09T17:02:54.965Z,8.03
2018-10-09T17:05:22.315Z,8.13
2018-10-09T17:07:49.632Z,8.03
2018-10-09T17:10:16.995Z,7.73
2018-10-09T17:12:44.335Z,8.83
2018-10-09T17:15:11.744Z,8.03
2018-10-09T17:17:39.076Z,8.13
2018-10-09T17:20:06.509Z,8.13
2018-10-09T17:22:33.868Z,7.63
2018-10-09T17:25:01.219Z,9.40
2018-10-09T17:27:28.581Z,8.70
2018-10-09T17:29:55.950Z,9.07
2018-10-09T17:32:23.333Z,9.50
2018-10-09T17:34:50.706Z,23.90
2018-10-09T17:37:18.053Z,19.63
2018-10-09T17:39:45.380Z,18.80
2018-10-09T17:42:12.793Z,19.07
2018-10-09T17:44:40.066Z,19.20
2018-10-09T17:47:08.469Z,19.77
2018-10-09T17:49:36.773Z,14.00
2018-10-09T17:52:04.096Z,12.50
2018-10-09T17:54:31.488Z,10.23
2018-10-09T17:56:58.800Z,10.37
2018-10-09T17:59:26.328Z,9.30
2018-10-09T18:01:53.667Z,9.50
2018-10-09T18:04:21.057Z,9.03
2018-10-09T18:06:48.423Z,9.77
2018-10-09T18:09:15.801Z,8.37
2018-10-09T18:11:43.103Z,9.60
2018-10-09T18:14:11.102Z,12.77
2018-10-09T18:16:38.491Z,8.60
2018-10-09T18:19:06.603Z,8.63
2018-10-09T18:21:34.759Z,8.13
2018-10-09T18:24:02.117Z,7.83
2018-10-09T18:26:29.487Z,7.93
2018-10-09T18:28:56.783Z,8.53
2018-10-09T18:31:24.160Z,9.00
2018-10-09T18:33:51.511Z,9.30
2018-10-09T18:36:18.799Z,9.27
2018-10-09T18:38:46.141Z,8.60
2018-10-09T18:41:13.610Z,8.00
2018-10-09T18:43:40.888Z,7.73
2018-10-09T18:46:08.242Z,7.37
2018-10-09T18:48:35.563Z,7.30
2018-10-09T18:51:02.888Z,7.40
2018-10-09T18:53:30.199Z,7.57
2018-10-09T18:55:57.546Z,7.57
2018-10-09T18:58:24.919Z,8.10
2018-10-09T19:00:52.720Z,7.10
2018-10-09T19:03:20.128Z,6.60
2018-10-09T19:05:47.423Z,7.13
2018-10-09T19:08:14.745Z,7.47
2018-10-09T19:10:42.143Z,7.77
2018-10-09T19:13:09.458Z,7.90
2018-10-09T19:15:36.833Z,7.83
2018-10-09T19:18:04.275Z,8.33
2018-10-09T19:20:31.696Z,8.77
2018-10-09T19:22:58.998Z,8.27
2018-10-09T19:25:26.374Z,8.57
2018-10-09T19:27:53.773Z,8.10
2018-10-09T19:30:21.082Z,8.63
2018-10-09T19:32:48.382Z,8.50
2018-10-09T19:35:15.739Z,8.77
2018-10-09T19:37:43.107Z,9.90
2018-10-09T19:40:10.403Z,9.50
2018-10-09T19:42:37.777Z,10.27
2018-10-09T19:45:05.127Z,9.60
2018-10-09T19:47:34.502Z,10.37
2018-10-09T19:50:01.835Z,10.93
2018-10-09T19:52:29.228Z,12.57
2018-10-09T19:54:56.547Z,11.30
2018-10-09T19:57:23.875Z,11.13
2018-10-09T19:59:51.196Z,11.23
2018-10-09T20:02:18.501Z,17.07
2018-10-09T20:04:45.854Z,19.20
2018-10-09T20:07:13.193Z,22.20
2018-10-09T20:09:40.604Z,20.90
2018-10-09T20:12:07.941Z,17.40
2018-10-09T20:14:35.300Z,15.47
2018-10-09T20:17:02.657Z,15.73
2018-10-09T20:19:30.047Z,14.13
2018-10-09T20:21:57.399Z,11.77
2018-10-09T20:24:24.807Z,12.07
2018-10-09T20:26:52.074Z,12.70
2018-10-09T20:29:19.376Z,11.53
2018-10-09T20:31:46.688Z,12.63
2018-10-09T20:34:13.978Z,11.03
2018-10-09T20:36:41.302Z,10.47
2018-10-09T20:39:08.588Z,10.90
2018-10-09T20:41:35.862Z,11.90
2018-10-09T20:44:03.254Z,10.83
2018-10-09T20:46:30.546Z,11.33
2018-10-09T20:48:57.927Z,11.70
2018-10-09T20:51:25.309Z,11.03
2018-10-09T20:53:52.671Z,10.63
2018-10-09T20:56:20.093Z,11.03
2018-10-09T20:58:47.446Z,11.63
2018-10-09T21:01:14.810Z,11.27
2018-10-09T21:03:42.161Z,10.87
2018-10-09T21:06:09.508Z,9.90
2018-10-09T21:08:36.860Z,10.70
2018-10-09T21:11:04.251Z,10.63
2018-10-09T21:13:31.599Z,10.87
2018-10-09T21:15:58.985Z,10.27
2018-10-09T21:18:26.429Z,9.17
2018-10-09T21:20:53.762Z,9.90
2018-10-09T21:23:21.083Z,9.83
2018-10-09T21:25:48.373Z,10.07
2018-10-09T21:28:15.728Z,9.93
2018-10-09T21:30:43.081Z,9.70
2018-10-09T21:33:10.431Z,9.90
2018-10-09T21:35:37.750Z,9.63
2018-10-09T21:38:05.162Z,9.80
2018-10-09T21:40:32.570Z,9.40
2018-10-09T21:42:59.840Z,10.50
2018-10-09T21:45:27.223Z,10.37
2018-10-09T21:48:04.682Z,10.43
2018-10-09T21:50:32.018Z,10.40
2018-10-09T21:52:59.650Z,10.37
2018-10-09T21:55:27.556Z,10.67
2018-10-09T21:57:55.483Z,10.00
2018-10-09T22:00:22.744Z,9.87
2018-10-09T22:02:50.090Z,9.50
2018-10-09T22:05:17.369Z,9.37
2018-10-09T22:07:44.691Z,9.33
2018-10-09T22:10:11.955Z,9.60
2018-10-09T22:12:39.393Z,9.70
2018-10-09T22:15:06.688Z,8.90
2018-10-09T22:17:34.068Z,9.93
2018-10-09T22:20:01.786Z,9.20
2018-10-09T22:22:29.087Z,9.20
2018-10-09T22:24:56.446Z,9.37
2018-10-09T22:27:23.814Z,9.50
2018-10-09T22:29:51.608Z,9.27
2018-10-09T22:32:18.939Z,11.50
2018-10-09T22:34:46.720Z,12.00
2018-10-09T22:37:14.048Z,12.20
2018-10-09T22:39:41.393Z,11.63
2018-10-09T22:42:08.735Z,10.43
2018-10-09T22:44:36.048Z,11.63
2018-10-09T22:47:03.342Z,12.20
2018-10-09T22:49:30.629Z,11.87
2018-10-09T22:51:57.999Z,12.10
2018-10-09T22:54:25.274Z,12.20
2018-10-09T22:56:52.756Z,11.77
2018-10-09T22:59:20.085Z,12.10
2018-10-09T23:01:47.390Z,12.57
2018-10-09T23:04:14.704Z,12.37
2018-10-09T23:06:42.011Z,11.60
2018-10-09T23:09:10.615Z,11.10
2018-10-09T23:11:37.948Z,11.73
2018-10-09T23:14:05.256Z,14.03
2018-10-09T23:16:32.622Z,12.40
2018-10-09T23:18:59.992Z,13.43
2018-10-09T23:21:27.335Z,11.83
2018-10-09T23:23:54.636Z,12.50
2018-10-09T23:26:22.027Z,12.83
2018-10-09T23:28:49.329Z,14.23
2018-10-09T23:31:16.774Z,13.17
2018-10-09T23:33:44.097Z,12.67
2018-10-09T23:36:11.368Z,13.20
2018-10-09T23:38:38.707Z,13.33
2018-10-09T23:41:06.331Z,13.23
2018-10-09T23:43:33.658Z,15.67
2018-10-09T23:46:00.982Z,14.50
2018-10-09T23:48:28.270Z,13.00
2018-10-09T23:50:55.567Z,12.83
2018-10-09T23:53:22.939Z,12.50
2018-10-09T23:55:50.270Z,12.37
2018-10-09T23:58:17.526Z,12.77
